createdAt,value
2023-04-23T00:01:07.494Z,11.49
2023-04-23T00:03:44.872Z,11.47
2023-04-23T00:06:18.990Z,11.43
2023-04-23T00:08:53.510Z,11.37
2023-04-23T00:11:26.574Z,11.35
2023-04-23T00:13:59.785Z,11.35
2023-04-23T00:16:33.435Z,11.38
2023-04-23T00:19:05.842Z,11.36
2023-04-23T00:21:38.263Z,11.33
2023-04-23T00:24:10.911Z,11.31
2023-04-23T00:26:43.317Z,11.31
2023-04-23T00:29:15.756Z,11.33
2023-04-23T00:31:48.283Z,11.32
2023-04-23T00:34:20.735Z,11.27
2023-04-23T00:36:53.073Z,11.23
2023-04-23T00:39:25.612Z,11.21
2023-04-23T00:41:59.239Z,11.23
2023-04-23T00:44:31.848Z,11.23
2023-04-23T00:47:04.513Z,11.18
2023-04-23T00:49:37.582Z,11.16
2023-04-23T00:52:09.990Z,11.16
2023-04-23T00:54:42.715Z,11.14
2023-04-23T00:57:15.643Z,11.11
2023-04-23T00:59:48.314Z,11.08
2023-04-23T01:02:23.048Z,11.06
2023-04-23T01:04:56.029Z,11.00
2023-04-23T01:07:29.246Z,10.98
2023-04-23T01:10:01.614Z,10.96
2023-04-23T01:12:34.870Z,10.93
2023-04-23T01:15:09.281Z,10.91
2023-04-23T01:17:41.707Z,10.90
2023-04-23T01:20:14.617Z,10.86
2023-04-23T01:22:47.085Z,10.85
2023-04-23T01:25:19.556Z,10.84
2023-04-23T01:27:51.992Z,10.82
2023-04-23T01:30:25.080Z,10.80
2023-04-23T01:32:59.615Z,10.79
2023-04-23T01:35:32.205Z,10.80
2023-04-23T01:38:07.157Z,10.76
2023-04-23T01:40:39.814Z,10.73
2023-04-23T01:43:12.167Z,10.69
2023-04-23T01:45:44.854Z,10.73
2023-04-23T01:48:17.219Z,10.69
2023-04-23T01:50:49.745Z,10.70
2023-04-23T01:53:22.099Z,10.70
2023-04-23T01:55:57.133Z,10.70
2023-04-23T01:58:29.598Z,10.65
2023-04-23T02:01:01.930Z,10.59
2023-04-23T02:03:35.171Z,10.49
2023-04-23T02:06:08.441Z,10.38
2023-04-23T02:08:41.342Z,10.35
2023-04-23T02:11:13.652Z,10.34
2023-04-23T02:13:46.060Z,10.29
2023-04-23T02:16:19.871Z,10.24
2023-04-23T02:18:52.393Z,10.22
2023-04-23T02:21:26.458Z,10.21
2023-04-23T02:23:59.037Z,10.23
2023-04-23T02:26:31.501Z,10.22
2023-04-23T02:29:03.995Z,10.24
2023-04-23T02:31:36.537Z,10.24
2023-04-23T02:34:08.968Z,10.24
2023-04-23T02:36:41.382Z,10.21
2023-04-23T02:39:13.712Z,10.17
2023-04-23T02:41:46.158Z,10.15
2023-04-23T02:44:18.537Z,10.13
2023-04-23T02:46:50.942Z,10.07
2023-04-23T02:49:23.359Z,10.03
2023-04-23T02:51:55.830Z,9.98
2023-04-23T02:54:28.199Z,9.95
2023-04-23T02:57:01.933Z,9.95
2023-04-23T02:59:34.397Z,9.96
2023-04-23T03:02:06.790Z,9.95
2023-04-23T03:04:40.027Z,9.95
2023-04-23T03:07:13.477Z,9.94
2023-04-23T03:09:45.812Z,9.91
2023-04-23T03:12:18.501Z,9.86
2023-04-23T03:14:50.980Z,9.83
2023-04-23T03:17:23.374Z,9.81
2023-04-23T03:19:55.938Z,9.80
2023-04-23T03:22:28.309Z,9.80
2023-04-23T03:25:00.823Z,9.82
2023-04-23T03:27:33.099Z,9.83
2023-04-23T03:30:08.175Z,9.82
2023-04-23T03:32:41.130Z,9.82
2023-04-23T03:35:13.691Z,9.82
2023-04-23T03:37:46.037Z,9.80
2023-04-23T03:40:18.472Z,9.78
2023-04-23T03:42:50.971Z,9.78
2023-04-23T03:45:23.446Z,9.76
2023-04-23T03:47:56.025Z,9.74
2023-04-23T03:50:28.250Z,9.76
2023-04-23T03:53:00.645Z,9.79
2023-04-23T03:55:33.036Z,9.83
2023-04-23T03:58:05.805Z,9.86
2023-04-23T04:00:38.147Z,9.88
2023-04-23T04:03:10.599Z,9.90
2023-04-23T04:05:43.279Z,9.91
2023-04-23T04:08:15.571Z,9.90
2023-04-23T04:10:48.168Z,9.91
2023-04-23T04:13:20.531Z,9.93
2023-04-23T04:15:52.957Z,9.96
2023-04-23T04:18:26.007Z,9.99
2023-04-23T04:20:58.409Z,10.04
2023-04-23T04:23:31.242Z,10.09
2023-04-23T04:26:05.004Z,10.13
2023-04-23T04:28:37.665Z,10.16
2023-04-23T04:31:10.529Z,10.18
2023-04-23T04:33:43.442Z,10.23
2023-04-23T04:36:15.710Z,10.27
2023-04-23T04:38:48.077Z,10.31
2023-04-23T04:41:21.876Z,10.35
2023-04-23T04:43:54.762Z,10.40
2023-04-23T04:46:29.481Z,10.44
2023-04-23T04:49:01.959Z,10.48
2023-04-23T04:51:34.335Z,10.53
2023-04-23T04:54:07.436Z,10.59
2023-04-23T04:56:39.778Z,10.65
2023-04-23T04:59:12.226Z,10.71
2023-04-23T05:01:45.581Z,10.77
2023-04-23T05:04:18.631Z,10.85
2023-04-23T05:06:51.241Z,10.93
2023-04-23T05:09:23.611Z,10.99
2023-04-23T05:11:56.003Z,11.06
2023-04-23T05:14:29.077Z,11.14
2023-04-23T05:17:01.492Z,11.21
2023-04-23T05:19:33.955Z,11.28
2023-04-23T05:22:06.514Z,11.36
2023-04-23T05:24:39.103Z,11.43
2023-04-23T05:27:11.561Z,11.49
2023-04-23T05:29:43.960Z,11.54
2023-04-23T05:32:16.525Z,11.60
2023-04-23T05:34:48.943Z,11.67
2023-04-23T05:37:21.178Z,11.74
2023-04-23T05:39:53.495Z,11.81
2023-04-23T05:42:26.190Z,11.86
2023-04-23T05:44:58.555Z,11.92
2023-04-23T05:47:31.895Z,11.97
2023-04-23T05:50:04.311Z,12.03
2023-04-23T05:52:37.667Z,12.09
2023-04-23T05:55:12.311Z,12.16
2023-04-23T05:57:44.810Z,12.21
2023-04-23T06:00:18.210Z,12.28
2023-04-23T06:02:50.662Z,12.36
2023-04-23T06:05:23.594Z,12.50
2023-04-23T06:07:56.350Z,12.61
2023-04-23T06:10:28.865Z,12.69
2023-04-23T06:13:01.331Z,12.84
2023-04-23T06:15:36.730Z,13.00
2023-04-23T06:18:10.598Z,13.15
2023-04-23T06:20:43.100Z,13.29
2023-04-23T06:23:15.989Z,13.46
2023-04-23T06:25:48.389Z,13.66
2023-04-23T06:28:20.800Z,13.88
2023-04-23T06:30:53.681Z,14.13
2023-04-23T06:33:25.984Z,14.39
2023-04-23T06:35:58.626Z,14.65
2023-04-23T06:38:31.010Z,14.91
2023-04-23T06:41:04.308Z,15.16
2023-04-23T06:43:36.667Z,15.43
2023-04-23T06:46:09.229Z,15.71
2023-04-23T06:48:41.676Z,15.94
2023-04-23T06:51:14.179Z,16.14
2023-04-23T06:53:46.463Z,16.40
2023-04-23T06:56:18.889Z,16.53
2023-04-23T06:58:51.345Z,16.51
2023-04-23T07:01:23.808Z,16.55
2023-04-23T07:03:56.181Z,16.71
2023-04-23T07:06:29.203Z,16.96
2023-04-23T07:09:01.452Z,17.18
2023-04-23T07:11:35.247Z,17.34
2023-04-23T07:14:07.758Z,17.28
2023-04-23T07:16:40.373Z,17.12
2023-04-23T07:19:12.815Z,17.26
2023-04-23T07:21:45.294Z,17.38
2023-04-23T07:24:19.002Z,17.45
2023-04-23T07:26:51.426Z,17.66
2023-04-23T07:29:23.993Z,17.92
2023-04-23T07:31:56.511Z,18.01
2023-04-23T07:34:28.908Z,18.15
2023-04-23T07:37:01.201Z,18.21
2023-04-23T07:39:33.688Z,18.35
2023-04-23T07:42:06.212Z,18.67
2023-04-23T07:44:38.652Z,18.93
2023-04-23T07:47:11.507Z,19.07
2023-04-23T07:49:43.989Z,19.17
2023-04-23T07:52:17.515Z,19.30
2023-04-23T07:54:50.373Z,19.38
2023-04-23T07:57:22.769Z,19.47
2023-04-23T07:59:55.195Z,19.55
2023-04-23T08:02:28.759Z,19.54
2023-04-23T08:05:01.484Z,19.63
2023-04-23T08:07:34.356Z,19.61
2023-04-23T08:10:07.763Z,19.55
2023-04-23T08:12:40.069Z,19.27
2023-04-23T08:15:14.444Z,19.13
2023-04-23T08:17:47.115Z,18.92
2023-04-23T08:20:19.748Z,19.07
2023-04-23T08:22:53.801Z,19.44
2023-04-23T08:25:26.752Z,19.81
2023-04-23T08:27:59.219Z,20.06
2023-04-23T08:30:31.578Z,20.27
2023-04-23T08:33:04.016Z,20.45
2023-04-23T08:35:36.535Z,20.73
2023-04-23T08:38:09.501Z,20.96
2023-04-23T08:40:43.960Z,21.18
2023-04-23T08:43:20.930Z,21.10
2023-04-23T08:45:54.494Z,20.81
2023-04-23T08:48:26.900Z,20.75
2023-04-23T08:51:00.845Z,20.80
2023-04-23T08:53:33.911Z,20.91
2023-04-23T08:56:06.711Z,20.95
2023-04-23T08:58:39.157Z,21.02
2023-04-23T09:01:12.258Z,21.17
2023-04-23T09:03:46.216Z,21.35
2023-04-23T09:06:18.886Z,21.47
2023-04-23T09:08:53.215Z,21.63
2023-04-23T09:11:28.527Z,21.86
2023-04-23T09:14:01.334Z,22.23
2023-04-23T09:16:34.173Z,22.55
2023-04-23T09:19:06.842Z,22.73
2023-04-23T09:21:40.622Z,22.81
2023-04-23T09:24:14.944Z,22.94
2023-04-23T09:26:51.511Z,22.98
2023-04-23T09:29:25.026Z,22.87
2023-04-23T09:32:07.856Z,22.81
2023-04-23T09:34:41.409Z,22.84
2023-04-23T09:37:16.226Z,22.93
2023-04-23T09:39:48.710Z,23.06
2023-04-23T09:42:24.763Z,23.26
2023-04-23T09:45:04.503Z,23.56
2023-04-23T09:47:39.870Z,23.40
2023-04-23T09:50:13.186Z,22.90
2023-04-23T09:52:45.964Z,22.77
2023-04-23T09:55:28.348Z,22.74
2023-04-23T09:58:01.612Z,22.51
2023-04-23T10:00:38.267Z,22.18
2023-04-23T10:03:12.339Z,22.17
2023-04-23T10:06:00.518Z,22.13
2023-04-23T10:08:35.214Z,22.29
2023-04-23T10:11:19.953Z,22.62
2023-04-23T10:13:54.935Z,22.65
2023-04-23T10:16:33.000Z,22.65
2023-04-23T10:19:17.417Z,22.57
2023-04-23T10:21:56.213Z,22.42
2023-04-23T10:24:35.640Z,22.28
2023-04-23T10:27:24.918Z,22.25
2023-04-23T10:30:04.131Z,22.32
2023-04-23T10:32:38.851Z,22.32
2023-04-23T10:35:12.624Z,22.58
2023-04-23T10:37:46.581Z,22.78
2023-04-23T10:40:25.848Z,22.86
2023-04-23T10:42:58.918Z,23.00
2023-04-23T10:45:33.530Z,23.29
2023-04-23T10:48:08.744Z,23.50
2023-04-23T10:50:58.358Z,23.51
2023-04-23T10:53:37.331Z,23.20
2023-04-23T10:56:10.708Z,23.03
2023-04-23T10:58:55.315Z,22.95
2023-04-23T11:01:31.917Z,22.76
2023-04-23T11:04:24.385Z,22.56
2023-04-23T11:06:59.254Z,22.52
2023-04-23T11:09:43.287Z,22.51
2023-04-23T11:12:31.479Z,22.33
2023-04-23T11:15:17.042Z,22.11
2023-04-23T11:18:05.039Z,21.88
2023-04-23T11:20:38.826Z,21.65
2023-04-23T11:23:30.495Z,21.55
2023-04-23T11:26:04.392Z,21.32
2023-04-23T11:28:38.905Z,21.18
2023-04-23T11:31:12.583Z,21.10
2023-04-23T11:33:44.998Z,21.00
2023-04-23T11:36:17.551Z,20.79
2023-04-23T11:38:50.099Z,20.56
2023-04-23T11:41:27.066Z,20.39
2023-04-23T11:43:59.882Z,20.34
2023-04-23T11:46:32.305Z,20.32
2023-04-23T11:49:04.822Z,20.32
2023-04-23T11:51:42.281Z,20.27
2023-04-23T11:54:15.118Z,20.24
2023-04-23T11:56:47.436Z,20.23
2023-04-23T11:59:19.753Z,20.23
2023-04-23T12:01:55.813Z,20.26
2023-04-23T12:04:30.384Z,20.33
2023-04-23T12:07:10.189Z,20.35
2023-04-23T12:09:51.802Z,20.37
2023-04-23T12:12:24.134Z,20.38
2023-04-23T12:15:07.231Z,20.21
2023-04-23T12:17:39.671Z,20.04
2023-04-23T12:20:21.227Z,19.94
2023-04-23T12:22:53.723Z,19.84
2023-04-23T12:25:27.138Z,19.84
2023-04-23T12:28:02.719Z,19.86
2023-04-23T12:30:33.923Z,19.91
2023-04-23T12:33:09.506Z,19.87
2023-04-23T12:35:43.414Z,19.79
2023-04-23T12:38:26.895Z,19.76
2023-04-23T12:41:01.941Z,19.79
2023-04-23T12:43:34.458Z,19.86
2023-04-23T12:46:07.062Z,19.92
2023-04-23T12:48:39.401Z,19.89
2023-04-23T12:51:11.906Z,19.94
2023-04-23T12:53:44.428Z,20.03
2023-04-23T12:56:16.728Z,20.15
2023-04-23T12:58:49.376Z,20.22
2023-04-23T13:01:21.907Z,20.27
2023-04-23T13:03:54.429Z,20.31
2023-04-23T13:06:27.271Z,20.40
2023-04-23T13:09:02.372Z,20.42
2023-04-23T13:11:34.811Z,20.40
2023-04-23T13:14:07.718Z,20.31
2023-04-23T13:16:40.338Z,20.25
2023-04-23T13:19:13.470Z,20.22
2023-04-23T13:21:46.149Z,20.18
2023-04-23T13:24:18.628Z,20.18
2023-04-23T13:26:51.131Z,20.16
2023-04-23T13:29:23.580Z,20.17
2023-04-23T13:31:56.076Z,20.17
2023-04-23T13:34:28.553Z,20.14
2023-04-23T13:37:05.411Z,20.07
2023-04-23T13:39:39.935Z,20.08
2023-04-23T13:42:13.841Z,20.15
2023-04-23T13:44:46.150Z,20.19
2023-04-23T13:47:18.509Z,20.18
2023-04-23T13:49:51.546Z,20.07
2023-04-23T13:52:23.929Z,20.00
2023-04-23T13:54:57.314Z,19.93
2023-04-23T13:57:29.855Z,19.85
2023-04-23T14:00:02.536Z,19.79
2023-04-23T14:02:35.005Z,19.68
2023-04-23T14:05:09.101Z,19.56
2023-04-23T14:07:41.833Z,19.49
2023-04-23T14:10:15.251Z,19.47
2023-04-23T14:12:48.060Z,19.44
2023-04-23T14:15:20.533Z,19.47
2023-04-23T14:17:53.221Z,19.46
2023-04-23T14:20:25.953Z,19.46
2023-04-23T14:23:03.173Z,19.44
2023-04-23T14:25:47.890Z,19.37
2023-04-23T14:28:34.929Z,19.27
2023-04-23T14:31:07.499Z,19.25
2023-04-23T14:33:39.914Z,19.21
2023-04-23T14:36:12.531Z,19.21
2023-04-23T14:38:44.950Z,19.15
2023-04-23T14:41:17.348Z,19.05
2023-04-23T14:43:49.761Z,18.95
2023-04-23T14:46:22.167Z,18.87
2023-04-23T14:48:54.554Z,18.83
2023-04-23T14:51:27.452Z,18.79
2023-04-23T14:53:59.801Z,18.75
2023-04-23T14:56:32.193Z,18.70
2023-04-23T14:59:04.884Z,18.67
2023-04-23T15:01:37.412Z,18.71
2023-04-23T15:04:11.282Z,18.71
2023-04-23T15:06:43.948Z,18.74
2023-04-23T15:09:17.219Z,18.80
2023-04-23T15:11:49.942Z,18.87
2023-04-23T15:14:33.038Z,18.92
2023-04-23T15:17:06.182Z,19.01
2023-04-23T15:19:38.718Z,19.05
2023-04-23T15:22:11.121Z,18.99
2023-04-23T15:24:43.496Z,18.84
2023-04-23T15:27:16.257Z,18.74
2023-04-23T15:29:49.476Z,18.74
2023-04-23T15:32:21.930Z,18.78
2023-04-23T15:34:54.612Z,18.80
2023-04-23T15:37:28.185Z,18.80
2023-04-23T15:40:01.361Z,18.78
2023-04-23T15:42:33.933Z,18.74
2023-04-23T15:45:07.188Z,18.68
2023-04-23T15:47:40.095Z,18.63
2023-04-23T15:50:14.583Z,18.60
2023-04-23T15:52:48.100Z,18.58
2023-04-23T15:55:22.378Z,18.58
2023-04-23T15:57:54.722Z,18.52
2023-04-23T16:00:27.063Z,18.46
2023-04-23T16:03:01.178Z,18.37
2023-04-23T16:05:33.833Z,18.25
2023-04-23T16:08:06.381Z,18.12
2023-04-23T16:10:40.394Z,17.95
2023-04-23T16:13:12.947Z,17.82
2023-04-23T16:15:45.450Z,17.81
2023-04-23T16:18:17.889Z,17.69
2023-04-23T16:20:50.543Z,17.65
2023-04-23T16:23:23.012Z,17.60
2023-04-23T16:25:56.826Z,17.53
2023-04-23T16:28:29.476Z,17.43
2023-04-23T16:31:01.936Z,17.41
2023-04-23T16:33:34.276Z,17.40
2023-04-23T16:36:07.449Z,17.42
2023-04-23T16:38:39.737Z,17.44
2023-04-23T16:41:12.150Z,17.44
2023-04-23T16:43:44.456Z,17.45
2023-04-23T16:46:17.058Z,17.45
2023-04-23T16:48:49.522Z,17.44
2023-04-23T16:51:21.886Z,17.43
2023-04-23T16:53:56.168Z,17.40
2023-04-23T16:56:28.880Z,17.38
2023-04-23T16:59:01.981Z,17.35
2023-04-23T17:01:34.541Z,17.33
2023-04-23T17:04:07.156Z,17.32
2023-04-23T17:06:39.867Z,17.30
2023-04-23T17:09:12.305Z,17.29
2023-04-23T17:11:44.577Z,17.26
2023-04-23T17:14:16.973Z,17.22
2023-04-23T17:16:49.405Z,17.19
2023-04-23T17:19:21.734Z,17.14
2023-04-23T17:21:54.168Z,17.15
2023-04-23T17:24:26.702Z,17.13
2023-04-23T17:26:59.293Z,17.11
2023-04-23T17:29:31.630Z,17.09
2023-04-23T17:32:04.568Z,17.05
2023-04-23T17:34:38.028Z,17.02
2023-04-23T17:37:10.553Z,17.00
2023-04-23T17:39:42.897Z,16.97
2023-04-23T17:42:15.279Z,16.93
2023-04-23T17:44:47.621Z,16.90
2023-04-23T17:47:20.035Z,16.89
2023-04-23T17:49:52.571Z,16.86
2023-04-23T17:52:24.912Z,16.84
2023-04-23T17:54:57.825Z,16.81
2023-04-23T17:57:30.170Z,16.78
2023-04-23T18:00:09.745Z,16.74
2023-04-23T18:02:42.544Z,16.67
2023-04-23T18:05:16.216Z,16.62
2023-04-23T18:07:48.645Z,16.59
2023-04-23T18:10:21.005Z,16.56
2023-04-23T18:12:53.651Z,16.55
2023-04-23T18:15:29.009Z,16.54
2023-04-23T18:18:01.567Z,16.50
2023-04-23T18:20:35.678Z,16.45
2023-04-23T18:23:08.914Z,16.41
2023-04-23T18:25:44.185Z,16.32
2023-04-23T18:28:16.545Z,16.24
2023-04-23T18:30:48.974Z,16.15
2023-04-23T18:33:32.982Z,16.02
2023-04-23T18:36:14.990Z,15.90
2023-04-23T18:38:47.702Z,15.81
2023-04-23T18:41:20.055Z,15.72
2023-04-23T18:43:53.070Z,15.64
2023-04-23T18:46:25.473Z,15.68
2023-04-23T18:49:05.882Z,15.68
2023-04-23T18:51:46.099Z,15.68
2023-04-23T18:54:18.384Z,15.68
2023-04-23T18:56:51.224Z,15.70
2023-04-23T18:59:24.022Z,15.72
2023-04-23T19:01:56.983Z,15.74
2023-04-23T19:04:30.041Z,15.76
2023-04-23T19:07:02.911Z,15.78
2023-04-23T19:09:35.376Z,15.79
2023-04-23T19:12:08.305Z,15.80
2023-04-23T19:14:40.764Z,15.81
2023-04-23T19:17:13.049Z,15.82
2023-04-23T19:19:48.377Z,15.82
2023-04-23T19:22:22.281Z,15.82
2023-04-23T19:24:54.681Z,15.80
2023-04-23T19:27:27.055Z,15.81
2023-04-23T19:30:01.053Z,15.80
2023-04-23T19:32:34.394Z,15.80
2023-04-23T19:35:10.553Z,15.79
2023-04-23T19:37:42.955Z,15.78
2023-04-23T19:40:16.473Z,15.77
2023-04-23T19:42:48.927Z,15.76
2023-04-23T19:45:22.174Z,15.76
2023-04-23T19:47:54.745Z,15.75
2023-04-23T19:50:28.035Z,15.72
2023-04-23T19:53:00.689Z,15.70
2023-04-23T19:55:33.068Z,15.66
2023-04-23T19:58:06.828Z,15.64
2023-04-23T20:00:41.553Z,15.61
2023-04-23T20:03:14.585Z,15.59
2023-04-23T20:05:48.425Z,15.58
2023-04-23T20:08:29.494Z,15.57
2023-04-23T20:11:01.847Z,15.57
2023-04-23T20:13:34.324Z,15.56
2023-04-23T20:16:08.327Z,15.55
2023-04-23T20:18:40.813Z,15.51
2023-04-23T20:21:13.220Z,15.48
2023-04-23T20:23:45.729Z,15.46
2023-04-23T20:26:18.100Z,15.44
2023-04-23T20:28:50.901Z,15.38
2023-04-23T20:31:23.663Z,15.29
2023-04-23T20:33:56.572Z,15.23
2023-04-23T20:36:31.796Z,15.21
2023-04-23T20:39:05.598Z,15.18
2023-04-23T20:41:38.590Z,15.16
2023-04-23T20:44:12.234Z,15.13
2023-04-23T20:46:47.401Z,15.08
2023-04-23T20:49:19.861Z,15.02
2023-04-23T20:51:52.300Z,14.95
2023-04-23T20:54:27.570Z,14.86
2023-04-23T20:56:59.871Z,14.78
2023-04-23T20:59:32.275Z,14.70
2023-04-23T21:02:06.654Z,14.61
2023-04-23T21:04:39.541Z,14.58
2023-04-23T21:07:11.936Z,14.54
2023-04-23T21:09:44.608Z,14.52
2023-04-23T21:12:17.231Z,14.50
2023-04-23T21:14:49.669Z,14.43
2023-04-23T21:17:21.894Z,14.43
2023-04-23T21:19:54.366Z,14.41
2023-04-23T21:22:26.787Z,14.40
2023-04-23T21:24:59.070Z,14.39
2023-04-23T21:27:32.779Z,14.39
2023-04-23T21:30:13.809Z,14.37
2023-04-23T21:32:46.283Z,14.33
2023-04-23T21:35:18.951Z,14.29
2023-04-23T21:37:51.409Z,14.25
2023-04-23T21:40:23.963Z,14.21
2023-04-23T21:42:56.639Z,14.12
2023-04-23T21:45:29.185Z,14.07
2023-04-23T21:48:01.978Z,14.03
2023-04-23T21:50:35.014Z,14.00
2023-04-23T21:53:07.261Z,13.98
2023-04-23T21:55:39.641Z,13.95
2023-04-23T21:58:17.324Z,13.92
2023-04-23T22:00:50.289Z,13.89
2023-04-23T22:03:37.805Z,13.85
2023-04-23T22:06:13.071Z,13.78
2023-04-23T22:08:46.419Z,13.75
2023-04-23T22:11:19.354Z,13.74
2023-04-23T22:13:51.635Z,13.71
2023-04-23T22:16:28.811Z,13.70
2023-04-23T22:19:01.722Z,13.70
2023-04-23T22:21:34.151Z,13.69
2023-04-23T22:24:07.361Z,13.68
2023-04-23T22:26:40.279Z,13.69
2023-04-23T22:29:12.681Z,13.69
2023-04-23T22:31:45.294Z,13.68
2023-04-23T22:34:19.540Z,13.69
2023-04-23T22:36:51.990Z,13.70
2023-04-23T22:39:24.344Z,13.72
2023-04-23T22:41:56.964Z,13.72
2023-04-23T22:44:29.288Z,13.71
2023-04-23T22:47:01.691Z,13.70
2023-04-23T22:49:34.679Z,13.70
2023-04-23T22:52:08.813Z,13.69
2023-04-23T22:54:41.130Z,13.68
2023-04-23T22:57:13.886Z,13.65
2023-04-23T22:59:46.392Z,13.62
2023-04-23T23:02:19.037Z,13.60
2023-04-23T23:04:51.405Z,13.59
2023-04-23T23:07:23.684Z,13.57
2023-04-23T23:09:56.037Z,13.58
2023-04-23T23:12:28.423Z,13.60
2023-04-23T23:15:02.000Z,13.62
2023-04-23T23:17:34.426Z,13.63
2023-04-23T23:20:09.020Z,13.63
2023-04-23T23:22:41.608Z,13.62
2023-04-23T23:25:14.352Z,13.60
2023-04-23T23:27:46.789Z,13.56
2023-04-23T23:30:19.172Z,13.50
2023-04-23T23:32:52.170Z,13.44
2023-04-23T23:35:24.633Z,13.38
2023-04-23T23:37:58.028Z,13.30
2023-04-23T23:40:30.302Z,13.29
2023-04-23T23:43:02.657Z,13.26
2023-04-23T23:45:35.049Z,13.25
2023-04-23T23:48:07.663Z,13.24
2023-04-23T23:50:40.101Z,13.25
2023-04-23T23:53:12.526Z,13.28
2023-04-23T23:55:45.054Z,13.31
2023-04-23T23:58:17.699Z,13.36
